• Join FlightAware (Why Join?)
  • Login
  • US Flag 
05:57PM EDT


 

Airport Tracker/Info


-or-


 

Live Flight TrackerFlight Track Log ✈ EJA929 ✈ 08-Sep-2013 ✈ KSSI - KHPN

Flight Track Log - Related Links

Times and Time Zones

All times are in EDT time to prevent confusion due to time zone crossing. See the EJA929 flight status page for this flight to view local times or setup timezone preferences in your user account.

Time Position Orientation Groundspeed Altitude Reporting Facility
EDT Latitude Longitude Course Direction KTS MPH feet Rate Location/Type
04:50PM 31.0947 -81.3786 37° Northeast 310 357 3,200  Level Jacksonville Center
04:51PM 31.1422 -81.3367 37° Northeast 135 155 5,300 1,980 Climbing Jacksonville Center
04:52PM 31.1961 -81.2944 34° Northeast 191 220 7,200 1,800 Climbing Jacksonville Center
04:53PM 31.2603 -81.2472 32° Northeast 237 273 9,000 1,860 Climbing Jacksonville Center
04:54PM 31.3097 -81.1953 42° Northeast 248 285 11,000 1,800 Climbing Jacksonville Center
04:55PM 31.3669 -81.1236 47° Northeast 287 330 12,700 1,500 Climbing Jacksonville Center
04:56PM 31.4581 -81.0611 30° Northeast 332 382 14,100 1,440 Climbing Jacksonville Center
04:57PM 31.5447 -80.9983 32° Northeast 356 410 15,600 1,500 Climbing Jacksonville Center
04:58PM 31.6256 -80.9431 30° Northeast 369 425 17,100 1,560 Climbing Jacksonville Center
04:59PM 31.7267 -80.8725 31° Northeast 379 436 18,800 1,560 Climbing Jacksonville Center
05:00PM 31.8092 -80.8122 32° Northeast 374 430 20,300 1,560 Climbing Jacksonville Center
05:01PM 31.9103 -80.7439 30° Northeast 374 430 22,000 1,620 Climbing Jacksonville Center
05:02PM 32.0031 -80.6756 32° Northeast 374 430 23,600 1,380 Climbing Jacksonville Center
05:03PM 32.0853 -80.6022 37° Northeast 400 460 24,800 1,080 Climbing Jacksonville Center
05:04PM 32.1881 -80.5114 37° Northeast 417 480 25,800 960 Climbing Jacksonville Center
05:05PM 32.2844 -80.4253 37° Northeast 430 495 26,800 900 Climbing Jacksonville Center
05:06PM 32.3831 -80.3392 36° Northeast 435 501 27,700 780 Climbing Jacksonville Center
05:07PM 32.4692 -80.2628 37° Northeast 430 495 28,400 900 Climbing Jacksonville Center
05:08PM 32.5633 -80.1786 37° Northeast 430 495 29,600 1,200 Climbing Jacksonville Center
05:09PM 32.6575 -80.0894 39° Northeast 430 495 30,900 1,260 Climbing Jacksonville Center
05:10PM 32.7556 -80.0000 37° Northeast 430 495 32,200 1,260 Climbing Jacksonville Center
05:12PM 32.9539 -79.8228 37° Northeast 435 501 34,800 1,260 Climbing Jacksonville Center
05:13PM 33.0561 -79.7328 36° Northeast 446 513 36,100 1,200 Climbing Jacksonville Center
05:14PM 33.1581 -79.6397 37° Northeast 446 513 37,300 1,200 Climbing Jacksonville Center
05:15PM 33.2597 -79.5442 38° Northeast 451 519 38,500 1,200 Climbing Jacksonville Center
05:16PM 33.3639 -79.4506 37° Northeast 451 519 39,800 1,020 Climbing Jacksonville Center
05:17PM 33.4675 -79.3544 38° Northeast 457 526 40,600 600 Climbing Jacksonville Center
05:18PM 33.5711 -79.2581 38° Northeast 463 533 41,000 60 Climbing Jacksonville Center
05:20PM 33.7983 -79.0528 37° Northeast 426 490 41,000  Level Washington Center
05:21PM 33.8950 -78.9617 38° Northeast 431 496 41,000  Level Washington Center
05:22PM 33.9933 -78.8756 36° Northeast 431 496 41,000  Level Washington Center
05:23PM 34.0939 -78.7792 38° Northeast 441 507 41,000  Level Washington Center
05:24PM 34.1944 -78.6853 38° Northeast 448 516 41,000  Level Washington Center
05:25PM 34.2992 -78.5886 37° Northeast 455 524 41,000  Level Washington Center
05:26PM 34.4078 -78.4994 34° Northeast 467 537 41,000  Level Washington Center
05:27PM 34.5183 -78.4125 33° Northeast 467 537 41,000  Level Washington Center
05:28PM 34.6331 -78.3231 33° Northeast 474 545 41,000  Level Washington Center
05:29PM 34.7456 -78.2333 33° Northeast 479 551 41,000  Level Washington Center
05:30PM 34.8500 -78.1406 36° Northeast 474 545 41,000  Level Washington Center
05:31PM 34.9667 -78.0506 32° Northeast 474 545 41,000  Level Washington Center
05:32PM 35.0747 -77.9625 34° Northeast 474 545 41,000  Level Washington Center
05:33PM 35.1892 -77.8717 33° Northeast 474 545 41,000  Level Washington Center
05:34PM 35.3014 -77.7808 33° Northeast 474 545 41,000  Level Washington Center
05:35PM 35.4136 -77.6919 33° Northeast 474 545 41,000  Level Washington Center
05:36PM 35.5281 -77.5981 34° Northeast 479 551 41,000  Level Washington Center
05:37PM 35.6400 -77.5089 33° Northeast 484 557 41,000  Level Washington Center
05:38PM 35.7542 -77.4144 34° Northeast 484 557 41,000  Level Washington Center
05:39PM 35.8661 -77.3247 33° Northeast 489 563 41,000  Level Washington Center
05:40PM 35.9819 -77.2322 33° Northeast 489 563 41,000  Level Washington Center
05:41PM 36.1025 -77.1267 35° Northeast 481 554 41,000  Level Washington Center
05:42PM 36.2183 -77.0336 33° Northeast 476 548 41,000  Level Washington Center
05:43PM 36.3319 -76.9406 33° Northeast 481 554 41,000  Level Washington Center
05:44PM 36.4225 -76.8644 34° Northeast 481 554 41,000  Level Washington Center
05:45PM 36.5572 -76.7531 34° Northeast 481 554 41,000  Level Washington Center
05:46PM 36.6708 -76.6614 33° Northeast 486 559 41,000  Level Washington Center
05:47PM 36.7842 -76.5619 35° Northeast 486 559 41,000  Level Washington Center
05:48PM 36.8914 -76.4644 36° Northeast 486 559 41,000  Level Washington Center
05:49PM 37.0047 -76.3722 33° Northeast 491 565 41,000  Level Washington Center
05:50PM 37.1181 -76.2769 34° Northeast 485 558 41,000  Level Washington Center
05:51PM 37.2311 -76.1789 35° Northeast 490 564 41,000  Level Washington Center
05:52PM 37.3378 -76.0961 32° Northeast 490 564 41,000  Level Washington Center
05:53PM 37.4489 -76.0000 34° Northeast 485 558 41,000  Level Washington Center
05:54PM 37.5617 -75.9061 33° Northeast 490 564 41,000  Level Washington Center
05:55PM 37.6744 -75.8044 35° Northeast 490 564 41,000  Level Washington Center
05:56PM 37.7853 -75.7075 35° Northeast 490 564 41,000  Level Washington Center
05:57PM 37.8978 -75.6103 34° Northeast 490 564 41,000  Level Washington Center
05:58PM 38.0125 -75.5128 34° Northeast 490 564 41,000  Level Washington Center
05:59PM 38.1292 -75.4228 31° Northeast 490 564 41,000  Level Washington Center
06:00PM 38.2500 -75.3458 27° Northeast 478 550 41,000 -420 Level Washington Center
06:01PM 38.3769 -75.2606 28° Northeast 473 544 40,200 -840 Descending Washington Center
06:02PM 38.4956 -75.1858 26° Northeast 468 539 39,400 -660 Descending Washington Center
06:03PM 38.6078 -75.1133 27° Northeast 463 533 39,000 -240 Descending Washington Center
06:04PM 38.7286 -75.0356 27° Northeast 463 533 39,000  Level Washington Center
06:05PM 38.8492 -74.9600 26° Northeast 470 541 39,000 -1,020 Level Washington Center
06:06PM 38.9592 -74.8894 27° Northeast 480 552 37,000 -2,100 Descending Washington Center
06:07PM 39.0733 -74.8136 27° Northeast 474 545 34,800 -2,280 Descending Washington Center
06:08PM 39.1808 -74.7133 36° Northeast 467 537 32,500 -2,400 Descending Washington Center
06:09PM 39.2883 -74.5994 39° Northeast 480 552 30,100 -2,400 Descending Washington Center
06:11PM 39.5039 -74.3789 38° Northeast 493 567 25,600 -2,160 Descending New York Center
06:12PM 39.5922 -74.2864 39° Northeast 444 511 23,800 -1,980 Descending New York Center
06:13PM 39.6742 -74.1961 40° Northeast 404 465 21,700 -2,940 Descending New York Center
06:14PM 39.7600 -74.1086 38° Northeast 386 444 18,000 -2,400 Descending New York Center
06:15PM 39.8375 -74.0258 39° Northeast 371 427 17,000 -540 Descending New York Center
06:16PM 39.9083 -73.9506 39° Northeast 361 415 17,000  Level New York Center
06:17PM 39.9875 -73.8675 39° Northeast 361 415 17,000  Level New York Center
06:18PM 40.0733 -73.7736 40° Northeast 361 415 17,000  Level New York Center
06:20PM 40.2311 -73.6061 39° Northeast 360 414 17,000  Level Boston Center
06:21PM 40.3133 -73.5206 38° Northeast 365 420 17,000  Level Boston Center
06:22PM 40.3933 -73.4483 35° Northeast 360 414 17,000  Level Boston Center
06:23PM 40.4894 -73.4142 15° North 343 395 17,000 -600 Level Boston Center
06:24PM 40.5833 -73.3800 15° North 343 395 15,900 -1,020 Descending Boston Center
06:25PM 40.6775 -73.3514 13° North 343 395 15,000 -600 Descending Boston Center
06:26PM 40.7333 -73.3333 14° North 347 399 15,000  Level New York TRACON
06:27PM 40.8167 -73.2667 31° Northeast 348 400 15,000 -600 Level New York TRACON
06:28PM 40.8667 -73.1667 57° Northeast 362 417 13,800 -1,620 Descending New York TRACON
06:29PM 40.9167 -73.0500 60° Northeast 324 373 11,700 -2,040 Descending New York TRACON
06:30PM 40.9833 -73.0167 21° North 270 311 9,800 -2,100 Descending New York TRACON
06:31PM 41.0500 -73.0167 360° North 256 295 7,800 -1,860 Descending New York TRACON
06:32PM 41.1167 -73.0333 349° North 260 299 6,100 -1,080 Descending New York TRACON
06:33PM 41.1500 -73.1000 304° West 249 287 5,700 -600 Descending New York TRACON
06:34PM 41.1500 -73.2000 270° West 253 291 5,000 -900 Descending New York TRACON
06:35PM 41.1667 -73.2833 285° West 239 275 4,000 -540 Descending New York TRACON
06:36PM 41.1833 -73.3833 283° West 241 277 4,000 -540 Level New York TRACON
06:37PM 41.1833 -73.4667 270° West 232 267 3,000 -480 Descending New York TRACON
06:38PM 41.1500 -73.5333 236° Southwest 236 272 3,000  Level New York TRACON
06:39PM 41.0833 -73.5333 180° South 232 267 3,000  Level New York TRACON
06:40PM 41.0333 -73.5167 166° South 216 249 3,000 -120 Level New York TRACON
06:41PM 41.0000 -73.5667 229° Southwest 208 239 2,800 -480 Descending New York TRACON
06:42PM 40.9833 -73.6333 252° West 183 211 2,100 -600 Descending New York TRACON
06:43PM 41.0000 -73.6667 304° West 123 142 1,600 -540 Descending New York TRACON
06:44PM 41.0333 -73.6833 339° North 113 130 1,100 -600 Descending New York TRACON